sensor_id;sensor_type;location;lat;lon;timestamp;temperature;humidity
68189;DHT22;66299;47.514;19.218;2024-03-02T00:01:37;8.14;97.87
68189;DHT22;66299;47.514;19.218;2024-03-02T00:04:07;8.14;97.91
68189;DHT22;66299;47.514;19.218;2024-03-02T00:06:37;8.13;97.79
68189;DHT22;66299;47.514;19.218;2024-03-02T00:09:09;8.09;97.90
68189;DHT22;66299;47.514;19.218;2024-03-02T00:11:40;8.10;97.88
68189;DHT22;66299;47.514;19.218;2024-03-02T00:14:09;8.10;97.94
68189;DHT22;66299;47.514;19.218;2024-03-02T00:16:38;8.11;97.92
68189;DHT22;66299;47.514;19.218;2024-03-02T00:19:08;8.16;97.79
68189;DHT22;66299;47.514;19.218;2024-03-02T00:21:38;8.19;97.83
68189;DHT22;66299;47.514;19.218;2024-03-02T00:24:18;8.24;97.69
68189;DHT22;66299;47.514;19.218;2024-03-02T00:26:49;8.27;97.54
68189;DHT22;66299;47.514;19.218;2024-03-02T00:29:17;8.33;97.32
68189;DHT22;66299;47.514;19.218;2024-03-02T00:31:47;8.38;97.14
68189;DHT22;66299;47.514;19.218;2024-03-02T00:34:17;8.38;97.20
68189;DHT22;66299;47.514;19.218;2024-03-02T00:36:48;8.34;97.19
68189;DHT22;66299;47.514;19.218;2024-03-02T00:39:16;8.37;97.24
68189;DHT22;66299;47.514;19.218;2024-03-02T00:41:45;8.34;97.23
68189;DHT22;66299;47.514;19.218;2024-03-02T00:44:16;8.37;97.15
68189;DHT22;66299;47.514;19.218;2024-03-02T00:46:50;8.31;97.21
68189;DHT22;66299;47.514;19.218;2024-03-02T00:49:21;8.33;97.11
68189;DHT22;66299;47.514;19.218;2024-03-02T00:51:54;8.31;97.09
68189;DHT22;66299;47.514;19.218;2024-03-02T00:54:25;8.37;96.95
68189;DHT22;66299;47.514;19.218;2024-03-02T00:56:56;8.33;96.96
68189;DHT22;66299;47.514;19.218;2024-03-02T00:59:25;8.29;96.99
68189;DHT22;66299;47.514;19.218;2024-03-02T01:01:54;8.27;97.23
68189;DHT22;66299;47.514;19.218;2024-03-02T01:04:23;8.26;97.11
68189;DHT22;66299;47.514;19.218;2024-03-02T01:06:53;8.26;97.16
68189;DHT22;66299;47.514;19.218;2024-03-02T01:09:23;8.24;97.11
68189;DHT22;66299;47.514;19.218;2024-03-02T01:11:51;8.20;97.07
68189;DHT22;66299;47.514;19.218;2024-03-02T01:14:22;8.20;97.12
68189;DHT22;66299;47.514;19.218;2024-03-02T01:16:51;8.30;96.27
68189;DHT22;66299;47.514;19.218;2024-03-02T01:19:20;8.33;96.29
68189;DHT22;66299;47.514;19.218;2024-03-02T01:21:49;8.29;96.27
68189;DHT22;66299;47.514;19.218;2024-03-02T01:24:20;8.29;96.18
68189;DHT22;66299;47.514;19.218;2024-03-02T01:26:49;8.29;96.11
68189;DHT22;66299;47.514;19.218;2024-03-02T01:29:17;8.31;96.34
68189;DHT22;66299;47.514;19.218;2024-03-02T01:31:46;8.34;96.24
68189;DHT22;66299;47.514;19.218;2024-03-02T01:34:15;8.27;96.54
68189;DHT22;66299;47.514;19.218;2024-03-02T01:36:43;8.24;96.71
68189;DHT22;66299;47.514;19.218;2024-03-02T01:39:12;8.20;96.93
68189;DHT22;66299;47.514;19.218;2024-03-02T01:41:42;8.23;96.81
68189;DHT22;66299;47.514;19.218;2024-03-02T01:44:12;8.21;96.86
68189;DHT22;66299;47.514;19.218;2024-03-02T01:46:41;8.20;97.02
68189;DHT22;66299;47.514;19.218;2024-03-02T01:49:09;8.21;97.02
68189;DHT22;66299;47.514;19.218;2024-03-02T01:51:39;8.21;96.89
68189;DHT22;66299;47.514;19.218;2024-03-02T01:54:07;8.27;96.68
68189;DHT22;66299;47.514;19.218;2024-03-02T01:56:36;8.29;96.60
68189;DHT22;66299;47.514;19.218;2024-03-02T01:59:08;8.30;96.76
68189;DHT22;66299;47.514;19.218;2024-03-02T02:01:37;8.29;96.63
68189;DHT22;66299;47.514;19.218;2024-03-02T02:04:05;8.30;96.73
68189;DHT22;66299;47.514;19.218;2024-03-02T02:06:34;8.29;96.67
68189;DHT22;66299;47.514;19.218;2024-03-02T02:09:03;8.24;96.63
68189;DHT22;66299;47.514;19.218;2024-03-02T02:11:32;8.33;96.33
68189;DHT22;66299;47.514;19.218;2024-03-02T02:14:01;8.34;96.21
68189;DHT22;66299;47.514;19.218;2024-03-02T02:16:30;8.30;96.49
68189;DHT22;66299;47.514;19.218;2024-03-02T02:18:59;8.33;96.30
68189;DHT22;66299;47.514;19.218;2024-03-02T02:21:30;8.29;96.48
68189;DHT22;66299;47.514;19.218;2024-03-02T02:23:58;8.26;96.49
68189;DHT22;66299;47.514;19.218;2024-03-02T02:26:26;8.26;96.39
68189;DHT22;66299;47.514;19.218;2024-03-02T02:28:55;8.34;95.99
68189;DHT22;66299;47.514;19.218;2024-03-02T02:31:24;8.36;95.70
68189;DHT22;66299;47.514;19.218;2024-03-02T02:33:53;8.37;95.62
68189;DHT22;66299;47.514;19.218;2024-03-02T02:36:22;8.38;95.22
68189;DHT22;66299;47.514;19.218;2024-03-02T02:38:52;8.44;94.77
68189;DHT22;66299;47.514;19.218;2024-03-02T02:41:22;8.41;95.38
68189;DHT22;66299;47.514;19.218;2024-03-02T02:43:51;8.42;95.25
68189;DHT22;66299;47.514;19.218;2024-03-02T02:46:19;8.42;95.01
68189;DHT22;66299;47.514;19.218;2024-03-02T02:48:48;8.40;95.19
68189;DHT22;66299;47.514;19.218;2024-03-02T02:51:17;8.42;95.44
68189;DHT22;66299;47.514;19.218;2024-03-02T02:53:46;8.42;95.60
68189;DHT22;66299;47.514;19.218;2024-03-02T02:56:15;8.36;95.86
68189;DHT22;66299;47.514;19.218;2024-03-02T02:58:44;8.38;95.79
68189;DHT22;66299;47.514;19.218;2024-03-02T03:01:13;8.33;95.91
68189;DHT22;66299;47.514;19.218;2024-03-02T03:03:41;8.34;95.74
68189;DHT22;66299;47.514;19.218;2024-03-02T03:06:10;8.33;96.08
68189;DHT22;66299;47.514;19.218;2024-03-02T03:08:38;8.30;96.21
68189;DHT22;66299;47.514;19.218;2024-03-02T03:11:07;8.31;96.49
68189;DHT22;66299;47.514;19.218;2024-03-02T03:13:38;8.31;96.66
68189;DHT22;66299;47.514;19.218;2024-03-02T03:16:09;8.31;96.60
68189;DHT22;66299;47.514;19.218;2024-03-02T03:18:39;8.30;97.13
68189;DHT22;66299;47.514;19.218;2024-03-02T03:21:08;8.29;96.94
68189;DHT22;66299;47.514;19.218;2024-03-02T03:23:37;8.30;96.92
68189;DHT22;66299;47.514;19.218;2024-03-02T03:26:06;8.33;97.07
68189;DHT22;66299;47.514;19.218;2024-03-02T03:28:36;8.26;97.32
68189;DHT22;66299;47.514;19.218;2024-03-02T03:31:06;8.30;97.05
68189;DHT22;66299;47.514;19.218;2024-03-02T03:33:34;8.27;97.14
68189;DHT22;66299;47.514;19.218;2024-03-02T03:36:03;8.31;97.34
68189;DHT22;66299;47.514;19.218;2024-03-02T03:38:32;8.29;97.91
68189;DHT22;66299;47.514;19.218;2024-03-02T03:41:01;8.27;98.00
68189;DHT22;66299;47.514;19.218;2024-03-02T03:43:29;8.27;98.22
68189;DHT22;66299;47.514;19.218;2024-03-02T03:45:58;8.20;98.78
68189;DHT22;66299;47.514;19.218;2024-03-02T03:48:29;8.20;98.55
68189;DHT22;66299;47.514;19.218;2024-03-02T03:50:58;8.21;99.05
68189;DHT22;66299;47.514;19.218;2024-03-02T03:53:27;8.17;99.30
68189;DHT22;66299;47.514;19.218;2024-03-02T03:55:56;8.11;99.34
68189;DHT22;66299;47.514;19.218;2024-03-02T03:58:24;8.13;99.11
68189;DHT22;66299;47.514;19.218;2024-03-02T04:00:53;8.13;99.40
68189;DHT22;66299;47.514;19.218;2024-03-02T04:03:22;8.16;99.44
68189;DHT22;66299;47.514;19.218;2024-03-02T04:05:53;8.14;99.51
68189;DHT22;66299;47.514;19.218;2024-03-02T04:08:21;8.11;99.68
68189;DHT22;66299;47.514;19.218;2024-03-02T04:10:50;8.13;99.51
68189;DHT22;66299;47.514;19.218;2024-03-02T04:13:19;8.11;99.99
68189;DHT22;66299;47.514;19.218;2024-03-02T04:15:47;8.09;99.99
68189;DHT22;66299;47.514;19.218;2024-03-02T04:18:17;8.10;99.85
68189;DHT22;66299;47.514;19.218;2024-03-02T04:20:46;8.09;99.99
68189;DHT22;66299;47.514;19.218;2024-03-02T04:23:21;8.07;99.99
68189;DHT22;66299;47.514;19.218;2024-03-02T04:25:50;8.04;99.99
68189;DHT22;66299;47.514;19.218;2024-03-02T04:28:19;8.10;99.99
68189;DHT22;66299;47.514;19.218;2024-03-02T04:30:49;8.06;99.99
68189;DHT22;66299;47.514;19.218;2024-03-02T04:33:20;8.06;99.99
68189;DHT22;66299;47.514;19.218;2024-03-02T04:35:49;8.06;99.99
68189;DHT22;66299;47.514;19.218;2024-03-02T04:38:18;8.07;99.99
68189;DHT22;66299;47.514;19.218;2024-03-02T04:40:50;8.09;99.99
68189;DHT22;66299;47.514;19.218;2024-03-02T04:43:18;8.09;99.99
68189;DHT22;66299;47.514;19.218;2024-03-02T04:45:47;8.03;99.99
68189;DHT22;66299;47.514;19.218;2024-03-02T04:48:16;8.02;99.99
68189;DHT22;66299;47.514;19.218;2024-03-02T04:50:46;8.00;99.99
68189;DHT22;66299;47.514;19.218;2024-03-02T04:53:15;7.93;99.99
68189;DHT22;66299;47.514;19.218;2024-03-02T04:55:44;7.96;99.99
68189;DHT22;66299;47.514;19.218;2024-03-02T04:58:55;7.96;99.99
68189;DHT22;66299;47.514;19.218;2024-03-02T05:01:23;7.96;99.99
68189;DHT22;66299;47.514;19.218;2024-03-02T05:03:52;7.97;99.99
68189;DHT22;66299;47.514;19.218;2024-03-02T05:06:21;7.99;99.99
68189;DHT22;66299;47.514;19.218;2024-03-02T05:08:50;7.94;99.99
68189;DHT22;66299;47.514;19.218;2024-03-02T05:11:19;7.93;99.99
68189;DHT22;66299;47.514;19.218;2024-03-02T05:14:15;7.96;99.99
68189;DHT22;66299;47.514;19.218;2024-03-02T05:16:45;7.87;99.99
68189;DHT22;66299;47.514;19.218;2024-03-02T05:19:14;7.90;99.99
68189;DHT22;66299;47.514;19.218;2024-03-02T05:21:43;7.87;99.99
68189;DHT22;66299;47.514;19.218;2024-03-02T05:24:11;7.89;99.99
68189;DHT22;66299;47.514;19.218;2024-03-02T05:26:40;7.90;99.99
68189;DHT22;66299;47.514;19.218;2024-03-02T05:29:08;7.89;99.99
68189;DHT22;66299;47.514;19.218;2024-03-02T05:31:39;7.85;99.99
68189;DHT22;66299;47.514;19.218;2024-03-02T05:34:07;7.89;99.99
68189;DHT22;66299;47.514;19.218;2024-03-02T05:36:38;7.87;99.99
68189;DHT22;66299;47.514;19.218;2024-03-02T05:39:07;7.82;99.99
68189;DHT22;66299;47.514;19.218;2024-03-02T05:41:37;7.79;99.99
68189;DHT22;66299;47.514;19.218;2024-03-02T05:44:06;7.85;99.99
68189;DHT22;66299;47.514;19.218;2024-03-02T05:46:34;7.83;99.99
68189;DHT22;66299;47.514;19.218;2024-03-02T05:49:06;7.85;99.99
68189;DHT22;66299;47.514;19.218;2024-03-02T05:51:38;7.86;99.99
68189;DHT22;66299;47.514;19.218;2024-03-02T05:54:09;7.85;99.99
68189;DHT22;66299;47.514;19.218;2024-03-02T05:56:37;7.83;99.99
68189;DHT22;66299;47.514;19.218;2024-03-02T05:59:05;7.86;99.99
68189;DHT22;66299;47.514;19.218;2024-03-02T06:01:42;7.86;99.99
68189;DHT22;66299;47.514;19.218;2024-03-02T06:04:12;7.89;99.99
68189;DHT22;66299;47.514;19.218;2024-03-02T06:06:41;7.90;99.99
68189;DHT22;66299;47.514;19.218;2024-03-02T06:09:11;7.90;99.99
68189;DHT22;66299;47.514;19.218;2024-03-02T06:11:45;7.93;99.99
68189;DHT22;66299;47.514;19.218;2024-03-02T06:14:13;7.96;99.99
68189;DHT22;66299;47.514;19.218;2024-03-02T06:16:42;7.94;99.99
68189;DHT22;66299;47.514;19.218;2024-03-02T06:19:14;8.00;99.99
68189;DHT22;66299;47.514;19.218;2024-03-02T06:21:42;8.00;99.99
68189;DHT22;66299;47.514;19.218;2024-03-02T06:24:11;8.04;99.99
68189;DHT22;66299;47.514;19.218;2024-03-02T06:26:39;8.06;99.99
68189;DHT22;66299;47.514;19.218;2024-03-02T06:29:08;8.03;99.99
68189;DHT22;66299;47.514;19.218;2024-03-02T06:31:37;8.07;99.99
68189;DHT22;66299;47.514;19.218;2024-03-02T06:34:05;8.07;99.99
68189;DHT22;66299;47.514;19.218;2024-03-02T06:36:38;8.11;99.99
68189;DHT22;66299;47.514;19.218;2024-03-02T06:39:07;8.13;99.99
68189;DHT22;66299;47.514;19.218;2024-03-02T06:41:36;8.17;99.99
68189;DHT22;66299;47.514;19.218;2024-03-02T06:44:05;8.21;99.99
68189;DHT22;66299;47.514;19.218;2024-03-02T06:46:34;8.24;99.99
68189;DHT22;66299;47.514;19.218;2024-03-02T06:49:03;8.27;99.99
68189;DHT22;66299;47.514;19.218;2024-03-02T06:51:34;8.29;99.99
68189;DHT22;66299;47.514;19.218;2024-03-02T06:54:05;8.33;99.99
68189;DHT22;66299;47.514;19.218;2024-03-02T06:56:34;8.37;99.99
68189;DHT22;66299;47.514;19.218;2024-03-02T06:59:02;8.41;99.99
68189;DHT22;66299;47.514;19.218;2024-03-02T07:01:31;8.47;99.99
68189;DHT22;66299;47.514;19.218;2024-03-02T07:04:00;8.48;99.80
68189;DHT22;66299;47.514;19.218;2024-03-02T07:06:29;8.50;99.99
68189;DHT22;66299;47.514;19.218;2024-03-02T07:08:58;8.61;99.99
68189;DHT22;66299;47.514;19.218;2024-03-02T07:11:28;8.58;99.99
68189;DHT22;66299;47.514;19.218;2024-03-02T07:13:57;8.62;99.99
68189;DHT22;66299;47.514;19.218;2024-03-02T07:16:26;8.68;99.99
68189;DHT22;66299;47.514;19.218;2024-03-02T07:19:00;8.75;99.73
68189;DHT22;66299;47.514;19.218;2024-03-02T07:21:29;8.71;99.92
68189;DHT22;66299;47.514;19.218;2024-03-02T07:23:59;8.73;99.97
68189;DHT22;66299;47.514;19.218;2024-03-02T07:26:31;8.71;99.92
68189;DHT22;66299;47.514;19.218;2024-03-02T07:29:02;8.69;99.83
68189;DHT22;66299;47.514;19.218;2024-03-02T07:31:31;8.59;99.98
68189;DHT22;66299;47.514;19.218;2024-03-02T07:34:00;8.62;99.97
68189;DHT22;66299;47.514;19.218;2024-03-02T07:36:29;8.68;99.67
68189;DHT22;66299;47.514;19.218;2024-03-02T07:38:58;8.65;99.96
68189;DHT22;66299;47.514;19.218;2024-03-02T07:41:27;8.67;99.71
68189;DHT22;66299;47.514;19.218;2024-03-02T07:43:59;8.61;99.99
68189;DHT22;66299;47.514;19.218;2024-03-02T07:46:28;8.62;99.99
68189;DHT22;66299;47.514;19.218;2024-03-02T07:48:56;8.58;99.99
68189;DHT22;66299;47.514;19.218;2024-03-02T07:51:25;8.61;99.99
68189;DHT22;66299;47.514;19.218;2024-03-02T07:53:53;8.64;99.99
68189;DHT22;66299;47.514;19.218;2024-03-02T07:56:23;8.71;99.95
68189;DHT22;66299;47.514;19.218;2024-03-02T07:58:52;8.69;99.99
68189;DHT22;66299;47.514;19.218;2024-03-02T08:01:23;8.64;99.99
68189;DHT22;66299;47.514;19.218;2024-03-02T08:03:52;8.58;99.99
68189;DHT22;66299;47.514;19.218;2024-03-02T08:06:20;8.55;99.99
68189;DHT22;66299;47.514;19.218;2024-03-02T08:08:49;8.58;99.99
68189;DHT22;66299;47.514;19.218;2024-03-02T08:11:18;8.57;99.99
68189;DHT22;66299;47.514;19.218;2024-03-02T08:13:47;8.52;99.99
68189;DHT22;66299;47.514;19.218;2024-03-02T08:16:16;8.55;99.99
68189;DHT22;66299;47.514;19.218;2024-03-02T08:18:48;8.58;99.99
68189;DHT22;66299;47.514;19.218;2024-03-02T08:21:18;8.58;99.99
68189;DHT22;66299;47.514;19.218;2024-03-02T08:23:47;8.55;99.99
68189;DHT22;66299;47.514;19.218;2024-03-02T08:26:16;8.59;99.99
68189;DHT22;66299;47.514;19.218;2024-03-02T08:28:47;8.55;99.99
68189;DHT22;66299;47.514;19.218;2024-03-02T08:31:16;8.57;99.99
68189;DHT22;66299;47.514;19.218;2024-03-02T08:33:44;8.57;99.99
68189;DHT22;66299;47.514;19.218;2024-03-02T08:36:14;8.61;99.99
68189;DHT22;66299;47.514;19.218;2024-03-02T08:38:44;8.52;99.99
68189;DHT22;66299;47.514;19.218;2024-03-02T08:41:15;8.57;99.99
68189;DHT22;66299;47.514;19.218;2024-03-02T08:43:46;8.67;99.99
68189;DHT22;66299;47.514;19.218;2024-03-02T08:46:16;8.69;99.99
68189;DHT22;66299;47.514;19.218;2024-03-02T08:48:47;8.67;99.99
68189;DHT22;66299;47.514;19.218;2024-03-02T08:51:18;8.71;99.99
68189;DHT22;66299;47.514;19.218;2024-03-02T08:53:47;8.69;99.99
68189;DHT22;66299;47.514;19.218;2024-03-02T08:56:19;8.85;99.99
68189;DHT22;66299;47.514;19.218;2024-03-02T08:58:49;8.85;99.99
68189;DHT22;66299;47.514;19.218;2024-03-02T09:01:18;8.86;99.99
68189;DHT22;66299;47.514;19.218;2024-03-02T09:03:49;8.90;99.99
68189;DHT22;66299;47.514;19.218;2024-03-02T09:06:21;9.00;99.99
68189;DHT22;66299;47.514;19.218;2024-03-02T09:08:52;8.96;99.99
68189;DHT22;66299;47.514;19.218;2024-03-02T09:11:20;9.00;99.99
68189;DHT22;66299;47.514;19.218;2024-03-02T09:13:50;9.09;99.99
68189;DHT22;66299;47.514;19.218;2024-03-02T09:16:19;9.22;99.99
68189;DHT22;66299;47.514;19.218;2024-03-02T09:18:48;9.24;99.99
68189;DHT22;66299;47.514;19.218;2024-03-02T09:21:19;9.24;99.99
68189;DHT22;66299;47.514;19.218;2024-03-02T09:23:49;9.19;99.99
68189;DHT22;66299;47.514;19.218;2024-03-02T09:26:19;9.07;99.99
68189;DHT22;66299;47.514;19.218;2024-03-02T09:28:48;9.12;99.99
68189;DHT22;66299;47.514;19.218;2024-03-02T09:31:18;9.15;99.99
68189;DHT22;66299;47.514;19.218;2024-03-02T09:33:46;9.09;99.99
68189;DHT22;66299;47.514;19.218;2024-03-02T09:36:20;9.17;99.99
68189;DHT22;66299;47.514;19.218;2024-03-02T09:38:50;9.10;99.99
68189;DHT22;66299;47.514;19.218;2024-03-02T09:41:20;9.09;99.99
68189;DHT22;66299;47.514;19.218;2024-03-02T09:43:49;9.13;99.99
68189;DHT22;66299;47.514;19.218;2024-03-02T09:46:17;9.15;99.99
68189;DHT22;66299;47.514;19.218;2024-03-02T09:48:47;9.23;99.99
68189;DHT22;66299;47.514;19.218;2024-03-02T09:51:15;9.24;99.99
68189;DHT22;66299;47.514;19.218;2024-03-02T09:53:49;9.13;99.99
68189;DHT22;66299;47.514;19.218;2024-03-02T09:56:18;9.12;99.99
68189;DHT22;66299;47.514;19.218;2024-03-02T09:58:47;9.09;99.99
68189;DHT22;66299;47.514;19.218;2024-03-02T10:01:17;9.13;99.99
68189;DHT22;66299;47.514;19.218;2024-03-02T10:03:47;9.13;99.99
68189;DHT22;66299;47.514;19.218;2024-03-02T10:06:22;9.06;99.99
68189;DHT22;66299;47.514;19.218;2024-03-02T10:08:53;9.03;99.99
68189;DHT22;66299;47.514;19.218;2024-03-02T10:11:27;9.06;99.99
68189;DHT22;66299;47.514;19.218;2024-03-02T10:14:07;9.03;99.99
68189;DHT22;66299;47.514;19.218;2024-03-02T10:16:37;9.05;99.99
68189;DHT22;66299;47.514;19.218;2024-03-02T10:19:16;9.02;99.99
68189;DHT22;66299;47.514;19.218;2024-03-02T10:21:45;8.93;99.99
68189;DHT22;66299;47.514;19.218;2024-03-02T10:24:15;8.95;99.99
68189;DHT22;66299;47.514;19.218;2024-03-02T10:26:44;8.95;99.99
68189;DHT22;66299;47.514;19.218;2024-03-02T10:29:13;9.06;99.99
68189;DHT22;66299;47.514;19.218;2024-03-02T10:31:44;9.12;99.99
68189;DHT22;66299;47.514;19.218;2024-03-02T10:34:13;9.17;99.99
68189;DHT22;66299;47.514;19.218;2024-03-02T10:36:43;9.13;99.99
68189;DHT22;66299;47.514;19.218;2024-03-02T10:39:15;9.16;99.99
68189;DHT22;66299;47.514;19.218;2024-03-02T10:41:49;9.15;99.99
68189;DHT22;66299;47.514;19.218;2024-03-02T10:44:22;9.17;99.99
68189;DHT22;66299;47.514;19.218;2024-03-02T10:46:52;9.16;99.99
68189;DHT22;66299;47.514;19.218;2024-03-02T10:49:23;9.13;99.99
68189;DHT22;66299;47.514;19.218;2024-03-02T10:51:52;9.13;99.99
68189;DHT22;66299;47.514;19.218;2024-03-02T10:54:21;9.17;99.99
68189;DHT22;66299;47.514;19.218;2024-03-02T10:56:55;9.19;99.99
68189;DHT22;66299;47.514;19.218;2024-03-02T10:59:27;9.17;99.99
68189;DHT22;66299;47.514;19.218;2024-03-02T11:01:59;9.24;99.99
68189;DHT22;66299;47.514;19.218;2024-03-02T11:04:32;9.22;99.99
68189;DHT22;66299;47.514;19.218;2024-03-02T11:07:04;9.24;99.99
68189;DHT22;66299;47.514;19.218;2024-03-02T11:09:37;9.15;99.99
68189;DHT22;66299;47.514;19.218;2024-03-02T11:12:12;9.28;99.99
68189;DHT22;66299;47.514;19.218;2024-03-02T11:14:43;9.31;99.99
68189;DHT22;66299;47.514;19.218;2024-03-02T11:17:13;9.33;99.99
68189;DHT22;66299;47.514;19.218;2024-03-02T11:19:45;9.46;99.99
68189;DHT22;66299;47.514;19.218;2024-03-02T11:22:14;9.58;99.99
68189;DHT22;66299;47.514;19.218;2024-03-02T11:24:51;9.64;99.99
68189;DHT22;66299;47.514;19.218;2024-03-02T11:30:48;9.68;99.99
68189;DHT22;66299;47.514;19.218;2024-03-02T11:33:23;9.70;99.87
68189;DHT22;66299;47.514;19.218;2024-03-02T11:35:56;9.73;99.99
68189;DHT22;66299;47.514;19.218;2024-03-02T11:38:33;9.75;99.99
68189;DHT22;66299;47.514;19.218;2024-03-02T11:41:06;9.62;99.75
68189;DHT22;66299;47.514;19.218;2024-03-02T11:43:38;9.47;99.99
68189;DHT22;66299;47.514;19.218;2024-03-02T11:46:08;9.50;99.99
68189;DHT22;66299;47.514;19.218;2024-03-02T11:48:39;9.40;99.99
68189;DHT22;66299;47.514;19.218;2024-03-02T11:51:08;9.31;99.99
68189;DHT22;66299;47.514;19.218;2024-03-02T11:53:38;9.33;99.99
68189;DHT22;66299;47.514;19.218;2024-03-02T11:56:12;9.33;99.98
68189;DHT22;66299;47.514;19.218;2024-03-02T11:58:42;9.33;99.98
68189;DHT22;66299;47.514;19.218;2024-03-02T12:01:10;9.31;99.99
68189;DHT22;66299;47.514;19.218;2024-03-02T12:03:41;9.24;99.99
68189;DHT22;66299;47.514;19.218;2024-03-02T12:06:09;9.13;99.99
68189;DHT22;66299;47.514;19.218;2024-03-02T12:08:40;9.09;99.99
68189;DHT22;66299;47.514;19.218;2024-03-02T12:11:13;9.15;99.99
68189;DHT22;66299;47.514;19.218;2024-03-02T12:13:51;9.15;99.99
68189;DHT22;66299;47.514;19.218;2024-03-02T12:16:25;9.13;99.99
68189;DHT22;66299;47.514;19.218;2024-03-02T12:18:54;9.16;99.99
68189;DHT22;66299;47.514;19.218;2024-03-02T12:21:23;9.16;99.99
68189;DHT22;66299;47.514;19.218;2024-03-02T12:23:52;9.26;99.99
68189;DHT22;66299;47.514;19.218;2024-03-02T12:26:26;9.24;99.99
68189;DHT22;66299;47.514;19.218;2024-03-02T12:28:55;9.17;99.99
68189;DHT22;66299;47.514;19.218;2024-03-02T12:31:24;9.19;99.99
68189;DHT22;66299;47.514;19.218;2024-03-02T12:33:52;9.22;99.99
68189;DHT22;66299;47.514;19.218;2024-03-02T12:36:23;9.48;99.99
68189;DHT22;66299;47.514;19.218;2024-03-02T12:38:56;9.23;99.86
68189;DHT22;66299;47.514;19.218;2024-03-02T12:41:27;9.02;99.99
68189;DHT22;66299;47.514;19.218;2024-03-02T12:43:59;9.05;99.99
68189;DHT22;66299;47.514;19.218;2024-03-02T12:46:27;8.92;99.99
68189;DHT22;66299;47.514;19.218;2024-03-02T12:48:57;8.99;99.99
68189;DHT22;66299;47.514;19.218;2024-03-02T12:51:30;8.88;99.99
68189;DHT22;66299;47.514;19.218;2024-03-02T12:54:00;8.90;99.99
68189;DHT22;66299;47.514;19.218;2024-03-02T12:56:33;9.00;99.99
68189;DHT22;66299;47.514;19.218;2024-03-02T12:59:03;8.96;99.99
68189;DHT22;66299;47.514;19.218;2024-03-02T13:01:33;9.05;99.99
68189;DHT22;66299;47.514;19.218;2024-03-02T13:04:04;8.89;99.99
68189;DHT22;66299;47.514;19.218;2024-03-02T13:06:35;8.78;99.99
68189;DHT22;66299;47.514;19.218;2024-03-02T13:09:04;8.76;99.99
68189;DHT22;66299;47.514;19.218;2024-03-02T13:11:47;8.86;99.99
68189;DHT22;66299;47.514;19.218;2024-03-02T13:14:17;8.82;99.99
68189;DHT22;66299;47.514;19.218;2024-03-02T13:16:45;8.80;99.99
68189;DHT22;66299;47.514;19.218;2024-03-02T13:19:15;8.80;99.99
68189;DHT22;66299;47.514;19.218;2024-03-02T13:21:43;8.83;99.99
68189;DHT22;66299;47.514;19.218;2024-03-02T13:24:12;8.82;99.91
68189;DHT22;66299;47.514;19.218;2024-03-02T13:26:43;8.86;99.82
68189;DHT22;66299;47.514;19.218;2024-03-02T13:29:14;8.95;99.69
68189;DHT22;66299;47.514;19.218;2024-03-02T13:31:46;9.06;99.99
68189;DHT22;66299;47.514;19.218;2024-03-02T13:34:16;9.02;99.58
68189;DHT22;66299;47.514;19.218;2024-03-02T13:36:45;9.13;99.99
68189;DHT22;66299;47.514;19.218;2024-03-02T13:39:13;9.07;99.81
68189;DHT22;66299;47.514;19.218;2024-03-02T13:41:44;9.05;99.82
68189;DHT22;66299;47.514;19.218;2024-03-02T13:44:21;8.95;99.86
68189;DHT22;66299;47.514;19.218;2024-03-02T13:46:50;8.85;99.99
68189;DHT22;66299;47.514;19.218;2024-03-02T13:49:20;8.83;99.99
68189;DHT22;66299;47.514;19.218;2024-03-02T13:51:50;8.85;99.98
68189;DHT22;66299;47.514;19.218;2024-03-02T13:54:18;8.78;99.99
68189;DHT22;66299;47.514;19.218;2024-03-02T13:56:48;8.73;99.98
68189;DHT22;66299;47.514;19.218;2024-03-02T13:59:19;8.82;99.86
68189;DHT22;66299;47.514;19.218;2024-03-02T14:01:50;8.78;99.96
68189;DHT22;66299;47.514;19.218;2024-03-02T14:04:21;8.75;99.80
68189;DHT22;66299;47.514;19.218;2024-03-02T14:06:49;8.82;99.99
68189;DHT22;66299;47.514;19.218;2024-03-02T14:09:20;8.92;99.91
68189;DHT22;66299;47.514;19.218;2024-03-02T14:11:51;8.92;99.80
68189;DHT22;66299;47.514;19.218;2024-03-02T14:14:22;9.00;99.85
68189;DHT22;66299;47.514;19.218;2024-03-02T14:16:55;9.02;99.75
68189;DHT22;66299;47.514;19.218;2024-03-02T14:19:27;9.03;99.91
68189;DHT22;66299;47.514;19.218;2024-03-02T14:21:56;8.85;99.60
68189;DHT22;66299;47.514;19.218;2024-03-02T14:24:24;8.83;99.89
68189;DHT22;66299;47.514;19.218;2024-03-02T14:26:53;8.80;99.99
68189;DHT22;66299;47.514;19.218;2024-03-02T14:29:36;8.79;99.99
68189;DHT22;66299;47.514;19.218;2024-03-02T14:32:08;8.78;99.99
68189;DHT22;66299;47.514;19.218;2024-03-02T14:34:37;8.80;99.99
68189;DHT22;66299;47.514;19.218;2024-03-02T14:37:06;8.73;99.99
68189;DHT22;66299;47.514;19.218;2024-03-02T14:39:36;8.73;99.99
68189;DHT22;66299;47.514;19.218;2024-03-02T14:42:04;8.80;99.99
68189;DHT22;66299;47.514;19.218;2024-03-02T14:44:34;8.71;99.99
68189;DHT22;66299;47.514;19.218;2024-03-02T14:47:04;8.69;99.99
68189;DHT22;66299;47.514;19.218;2024-03-02T14:49:35;8.73;99.99
68189;DHT22;66299;47.514;19.218;2024-03-02T14:52:08;8.76;99.99
68189;DHT22;66299;47.514;19.218;2024-03-02T14:54:37;8.73;99.99
68189;DHT22;66299;47.514;19.218;2024-03-02T14:57:06;8.80;99.99
68189;DHT22;66299;47.514;19.218;2024-03-02T14:59:35;8.79;99.99
68189;DHT22;66299;47.514;19.218;2024-03-02T15:02:05;8.78;99.99
68189;DHT22;66299;47.514;19.218;2024-03-02T15:04:35;8.73;99.99
68189;DHT22;66299;47.514;19.218;2024-03-02T15:07:04;8.73;99.99
68189;DHT22;66299;47.514;19.218;2024-03-02T15:09:33;8.71;99.99
68189;DHT22;66299;47.514;19.218;2024-03-02T15:12:04;8.71;99.99
68189;DHT22;66299;47.514;19.218;2024-03-02T15:14:33;8.75;99.99
68189;DHT22;66299;47.514;19.218;2024-03-02T15:17:02;8.72;99.99
68189;DHT22;66299;47.514;19.218;2024-03-02T15:19:30;8.72;99.99
68189;DHT22;66299;47.514;19.218;2024-03-02T15:22:01;8.72;99.99
68189;DHT22;66299;47.514;19.218;2024-03-02T15:24:30;8.75;99.99
68189;DHT22;66299;47.514;19.218;2024-03-02T15:26:59;8.72;99.99
68189;DHT22;66299;47.514;19.218;2024-03-02T15:29:30;8.69;99.99
68189;DHT22;66299;47.514;19.218;2024-03-02T15:31:59;8.75;99.99
68189;DHT22;66299;47.514;19.218;2024-03-02T15:34:28;8.79;99.99
68189;DHT22;66299;47.514;19.218;2024-03-02T15:36:56;8.72;99.99
68189;DHT22;66299;47.514;19.218;2024-03-02T15:39:27;8.73;99.99
68189;DHT22;66299;47.514;19.218;2024-03-02T15:41:56;8.78;99.99
68189;DHT22;66299;47.514;19.218;2024-03-02T15:44:24;8.79;99.99
68189;DHT22;66299;47.514;19.218;2024-03-02T15:46:53;8.73;99.99
68189;DHT22;66299;47.514;19.218;2024-03-02T15:49:22;8.78;99.99
68189;DHT22;66299;47.514;19.218;2024-03-02T15:51:54;8.71;99.99